createdAt,value
2022-11-19T00:04:28.501Z,39.35
2022-11-19T00:09:33.814Z,39.92
2022-11-19T00:14:38.729Z,40.47
2022-11-19T00:19:43.634Z,38.43
2022-11-19T00:24:49.387Z,39.20
2022-11-19T00:29:55.506Z,40.10
2022-11-19T00:35:00.510Z,40.70
2022-11-19T00:40:08.339Z,41.10
2022-11-19T00:45:13.678Z,39.93
2022-11-19T00:50:18.881Z,40.90
2022-11-19T00:55:23.780Z,40.57
2022-11-19T01:00:30.002Z,40.17
2022-11-19T01:05:35.444Z,38.93
2022-11-19T01:10:41.094Z,40.90
2022-11-19T01:15:51.219Z,41.17
2022-11-19T01:20:56.742Z,41.00
2022-11-19T01:26:02.538Z,40.60
2022-11-19T01:31:10.184Z,39.70
2022-11-19T01:36:19.423Z,40.50
2022-11-19T01:41:34.402Z,39.87
2022-11-19T01:46:40.034Z,41.47
2022-11-19T01:51:54.434Z,42.83
2022-11-19T01:57:02.392Z,40.77
2022-11-19T02:02:07.488Z,38.80
2022-11-19T02:07:14.540Z,41.10
2022-11-19T02:12:29.026Z,39.33
2022-11-19T02:17:52.509Z,39.63
2022-11-19T02:23:26.950Z,40.57
2022-11-19T02:28:43.694Z,39.27
2022-11-19T02:33:57.870Z,42.03
2022-11-19T02:39:08.423Z,42.07
2022-11-19T02:44:43.791Z,42.13
2022-11-19T02:49:50.768Z,43.07
2022-11-19T02:54:56.317Z,42.60
2022-11-19T03:00:21.930Z,85.07
2022-11-19T03:05:30.965Z,45.15
2022-11-19T03:10:42.523Z,44.37
2022-11-19T03:16:07.562Z,40.57
2022-11-19T03:21:24.236Z,38.77
2022-11-19T03:26:32.766Z,30.08
2022-11-19T03:31:39.714Z,36.10
2022-11-19T03:36:47.095Z,38.57
2022-11-19T03:41:55.040Z,39.92
2022-11-19T03:47:15.492Z,44.20
2022-11-19T03:52:22.802Z,43.40
2022-11-19T03:57:29.131Z,38.70
2022-11-19T04:02:34.180Z,39.47
2022-11-19T04:07:40.327Z,40.57
2022-11-19T04:12:46.010Z,42.67
2022-11-19T04:17:51.432Z,37.27
2022-11-19T04:22:57.136Z,36.67
2022-11-19T04:28:02.039Z,38.90
2022-11-19T04:33:07.853Z,39.07
2022-11-19T04:38:13.928Z,39.50
2022-11-19T04:43:19.321Z,37.63
2022-11-19T04:48:25.363Z,38.60
2022-11-19T04:53:31.352Z,37.35
2022-11-19T04:58:36.527Z,39.40
2022-11-19T05:03:42.180Z,37.43
2022-11-19T05:08:47.524Z,37.60
2022-11-19T05:13:52.496Z,40.03
2022-11-19T05:18:58.530Z,38.60
2022-11-19T05:24:03.787Z,36.37
2022-11-19T05:29:08.896Z,36.13
2022-11-19T05:34:13.870Z,35.53
2022-11-19T05:39:22.196Z,33.73
2022-11-19T05:44:25.627Z,35.63
2022-11-19T05:49:30.739Z,35.67
2022-11-19T05:54:36.957Z,34.85
2022-11-19T05:59:44.062Z,34.57
2022-11-19T06:04:49.037Z,33.50
2022-11-19T06:09:55.763Z,31.83
2022-11-19T06:15:02.411Z,31.90
2022-11-19T06:20:10.519Z,35.57
2022-11-19T06:25:16.126Z,32.50
2022-11-19T06:30:22.880Z,32.75
2022-11-19T06:35:28.146Z,29.97
2022-11-19T06:40:33.101Z,31.23
2022-11-19T06:45:38.077Z,29.53
2022-11-19T06:50:43.269Z,28.80
2022-11-19T06:55:48.545Z,29.17
2022-11-19T07:00:53.933Z,28.80
2022-11-19T07:06:01.997Z,30.70
2022-11-19T07:11:08.648Z,29.53
2022-11-19T07:16:14.283Z,31.33
2022-11-19T07:21:19.902Z,32.33
2022-11-19T07:26:25.221Z,31.77
2022-11-19T07:31:30.752Z,32.20
2022-11-19T07:36:36.818Z,33.37
2022-11-19T07:42:00.373Z,34.23
2022-11-19T07:47:08.634Z,35.73
2022-11-19T07:52:14.277Z,37.93
2022-11-19T07:57:20.226Z,36.13
2022-11-19T08:02:25.564Z,39.30
2022-11-19T08:07:31.174Z,42.67
2022-11-19T08:12:36.920Z,46.40
2022-11-19T08:17:59.616Z,59.70
2022-11-19T08:23:05.358Z,50.43
2022-11-19T08:28:11.007Z,48.00
2022-11-19T08:33:16.108Z,43.33
2022-11-19T08:38:21.167Z,42.23
2022-11-19T08:43:26.670Z,44.67
2022-11-19T08:48:32.501Z,43.97
2022-11-19T08:53:38.465Z,43.10
2022-11-19T08:58:44.308Z,42.53
2022-11-19T09:03:49.644Z,44.45
2022-11-19T09:08:54.674Z,46.20
2022-11-19T09:14:01.447Z,42.40
2022-11-19T09:19:08.214Z,41.20
2022-11-19T09:24:13.292Z,42.37
2022-11-19T09:29:19.454Z,42.97
2022-11-19T09:34:24.552Z,40.80
2022-11-19T09:39:30.315Z,45.25
2022-11-19T09:44:41.461Z,40.50
2022-11-19T09:50:08.049Z,40.80
2022-11-19T09:55:20.184Z,41.58
2022-11-19T10:00:28.422Z,39.90
2022-11-19T10:05:54.359Z,39.45
2022-11-19T10:11:06.369Z,41.07
2022-11-19T10:16:35.938Z,42.87
2022-11-19T10:21:53.040Z,41.77
2022-11-19T10:27:08.473Z,41.60
2022-11-19T10:32:26.778Z,41.27
2022-11-19T10:37:37.666Z,41.77
2022-11-19T10:43:02.847Z,40.33
2022-11-19T10:48:25.362Z,41.77
2022-11-19T10:53:37.163Z,41.77
2022-11-19T10:58:51.736Z,41.47
2022-11-19T11:04:15.881Z,40.37
2022-11-19T11:09:40.602Z,41.83
2022-11-19T11:14:53.340Z,41.25
2022-11-19T11:20:10.318Z,41.87
2022-11-19T11:25:27.850Z,41.63
2022-11-19T11:30:34.225Z,42.75
2022-11-19T11:35:41.691Z,41.80
2022-11-19T11:42:01.964Z,42.47
2022-11-19T11:46:19.522Z,43.37
2022-11-19T11:51:30.901Z,43.08
2022-11-19T11:56:36.046Z,41.90
2022-11-19T12:01:43.654Z,40.70
2022-11-19T12:06:54.756Z,40.20
2022-11-19T12:12:03.282Z,41.70
2022-11-19T12:17:14.434Z,41.43
2022-11-19T12:22:40.572Z,41.23
2022-11-19T12:28:08.161Z,41.23
2022-11-19T12:33:39.925Z,40.13
2022-11-19T12:38:57.335Z,39.90
2022-11-19T12:44:05.133Z,40.07
2022-11-19T12:49:18.964Z,40.83
2022-11-19T12:54:36.452Z,39.83
2022-11-19T12:59:59.819Z,40.28
2022-11-19T13:05:17.091Z,40.10
2022-11-19T13:10:32.232Z,39.55
2022-11-19T13:15:40.515Z,39.90
2022-11-19T13:20:52.204Z,38.87
2022-11-19T13:26:06.553Z,40.43
2022-11-19T13:31:31.289Z,39.50
2022-11-19T13:36:39.981Z,40.47
2022-11-19T13:42:11.700Z,40.60
2022-11-19T13:47:24.709Z,40.87
2022-11-19T13:52:33.022Z,41.20
2022-11-19T13:57:44.527Z,41.30
2022-11-19T14:03:08.999Z,40.37
2022-11-19T14:08:26.706Z,40.27
2022-11-19T14:13:51.116Z,40.43
2022-11-19T14:19:17.304Z,40.70
2022-11-19T14:24:47.343Z,40.15
2022-11-19T14:29:55.689Z,40.67
2022-11-19T14:35:08.907Z,39.77
2022-11-19T14:40:21.682Z,39.60
2022-11-19T14:45:27.007Z,41.80
2022-11-19T14:50:32.650Z,41.03
2022-11-19T14:55:39.219Z,42.83
2022-11-19T15:05:49.851Z,45.63
2022-11-19T15:11:07.199Z,39.03
2022-11-19T15:21:24.747Z,39.93
2022-11-19T15:26:36.701Z,40.03
2022-11-19T15:32:00.990Z,41.35
2022-11-19T15:37:11.628Z,41.63
2022-11-19T15:42:22.899Z,41.37
2022-11-19T15:47:30.890Z,41.87
2022-11-19T15:52:36.581Z,39.30
2022-11-19T15:57:46.188Z,36.90
2022-11-19T16:02:54.329Z,37.13
2022-11-19T16:08:01.843Z,36.20
2022-11-19T16:13:30.594Z,34.77
2022-11-19T16:18:50.366Z,36.98
2022-11-19T16:24:14.118Z,36.60
2022-11-19T16:29:25.104Z,39.80
2022-11-19T16:34:34.233Z,36.97
2022-11-19T16:39:39.998Z,39.60
2022-11-19T16:44:48.604Z,36.17
2022-11-19T16:50:02.094Z,39.47
2022-11-19T16:55:32.154Z,39.57
2022-11-19T17:00:39.253Z,39.63
2022-11-19T17:05:50.870Z,37.87
2022-11-19T17:11:35.403Z,33.73
2022-11-19T17:16:42.533Z,36.65
2022-11-19T17:21:51.896Z,38.97
2022-11-19T17:26:56.859Z,39.87
2022-11-19T17:32:04.217Z,41.73
2022-11-19T17:37:10.418Z,40.17
2022-11-19T17:42:34.527Z,49.85
2022-11-19T17:47:39.866Z,40.83
2022-11-19T17:52:44.894Z,38.93
2022-11-19T17:57:49.870Z,44.17
2022-11-19T18:02:57.842Z,40.37
2022-11-19T18:08:01.742Z,37.50
2022-11-19T18:13:07.356Z,36.90
2022-11-19T18:18:13.843Z,38.75
2022-11-19T18:23:18.772Z,38.47
2022-11-19T18:28:24.791Z,45.93
2022-11-19T18:33:31.586Z,53.73
2022-11-19T18:38:38.372Z,36.90
2022-11-19T18:44:01.972Z,26.85
2022-11-19T18:49:06.917Z,44.67
2022-11-19T18:54:14.312Z,56.63
2022-11-19T18:59:19.686Z,41.30
2022-11-19T19:04:25.219Z,40.17
2022-11-19T19:09:30.669Z,48.47
2022-11-19T19:14:36.090Z,54.70
2022-11-19T19:19:42.334Z,41.13
2022-11-19T19:24:47.428Z,48.70
2022-11-19T19:29:52.922Z,41.00
2022-11-19T19:34:58.505Z,51.23
2022-11-19T19:40:04.486Z,38.00
2022-11-19T19:45:10.437Z,63.23
2022-11-19T19:50:16.329Z,73.37
2022-11-19T19:55:21.783Z,70.40
2022-11-19T20:00:27.702Z,51.73
2022-11-19T20:05:32.930Z,39.03
2022-11-19T20:10:38.309Z,36.20
2022-11-19T20:15:43.419Z,36.83
2022-11-19T20:20:48.812Z,39.60
2022-11-19T20:26:09.400Z,34.67
2022-11-19T20:31:17.445Z,35.67
2022-11-19T20:36:24.622Z,37.37
2022-11-19T20:41:48.310Z,38.70
2022-11-19T20:46:59.708Z,34.53
2022-11-19T20:52:06.605Z,34.33
2022-11-19T20:57:12.368Z,34.05
2022-11-19T21:02:18.869Z,29.70
2022-11-19T21:07:26.267Z,31.43
2022-11-19T21:12:32.335Z,32.10
2022-11-19T21:17:37.589Z,32.57
2022-11-19T21:22:42.574Z,34.27
2022-11-19T21:27:48.220Z,38.13
2022-11-19T21:32:54.356Z,68.87
2022-11-19T21:37:59.837Z,50.90
2022-11-19T21:43:05.313Z,63.10
2022-11-19T21:48:10.657Z,52.50
2022-11-19T21:53:17.312Z,72.53
2022-11-19T21:58:24.138Z,55.57
2022-11-19T22:03:31.556Z,44.18
2022-11-19T22:08:39.774Z,51.73
2022-11-19T22:13:45.318Z,52.73
2022-11-19T22:18:51.716Z,46.15
2022-11-19T22:29:02.157Z,36.70
2022-11-19T22:34:07.973Z,32.27
2022-11-19T22:39:14.940Z,33.47
2022-11-19T22:44:20.348Z,35.60
2022-11-19T22:49:26.117Z,31.53
2022-11-19T22:54:31.577Z,32.37
2022-11-19T22:59:36.836Z,30.97
2022-11-19T23:04:42.498Z,33.90
2022-11-19T23:09:47.396Z,36.53
2022-11-19T23:14:52.646Z,29.50
2022-11-19T23:20:01.692Z,31.47
2022-11-19T23:30:09.717Z,32.93
2022-11-19T23:35:15.165Z,27.13
2022-11-19T23:40:20.319Z,22.00
2022-11-19T23:45:26.660Z,30.60
2022-11-19T23:55:36.269Z,26.07
